Time;durP1;ratioP1;P1;durP2;ratioP2;P2;SDS_P1;SDS_P2;PMS_P1;PMS_P2;Temp;Humidity;BMP_temperature;BMP_pressure;BME280_temperature;BME280_humidity;BME280_pressure;Samples;Min_cycle;Max_cycle;Signal;HPM_P1;HPM_P2
2023/01/28 00:00:05;;;;;;;5.40;4.87;;;;;;;;;;5053898;28;20067;-59
2023/01/28 00:02:31;;;;;;;6.60;4.33;;;;;;;;;;5053784;28;20048;-57
2023/01/28 00:04:57;;;;;;;5.00;3.90;;;;;;;;;;5054406;28;20521;-59
2023/01/28 00:07:23;;;;;;;5.47;4.70;;;;;;;;;;5054070;28;20047;-59
2023/01/28 00:09:49;;;;;;;5.07;3.47;;;;;;;;;;5052789;28;20391;-59
2023/01/28 00:12:16;;;;;;;7.43;4.80;;;;;;;;;;5054152;28;20405;-57
2023/01/28 00:14:42;;;;;;;5.20;4.47;;;;;;;;;;5053890;28;20033;-57
2023/01/28 00:17:08;;;;;;;4.87;3.03;;;;;;;;;;5053489;28;20032;-57
2023/01/28 00:19:34;;;;;;;10.40;5.40;;;;;;;;;;5053617;28;20032;-59
2023/01/28 00:22:00;;;;;;;7.63;5.17;;;;;;;;;;5053654;28;20021;-59
2023/01/28 00:24:26;;;;;;;6.93;5.77;;;;;;;;;;5054492;28;20032;-57
2023/01/28 00:26:52;;;;;;;8.73;5.33;;;;;;;;;;5053720;28;20459;-59
2023/01/28 00:29:18;;;;;;;6.07;5.37;;;;;;;;;;5054210;28;20409;-59
2023/01/28 00:31:44;;;;;;;5.40;3.87;;;;;;;;;;5053871;28;20340;-57
2023/01/28 00:34:10;;;;;;;6.60;4.87;;;;;;;;;;5054069;28;20040;-59
2023/01/28 00:36:38;;;;;;;3.77;3.03;;;;;;;;;;5053578;28;20025;-57
2023/01/28 00:39:04;;;;;;;6.90;4.47;;;;;;;;;;5053513;28;20036;-57
2023/01/28 00:41:30;;;;;;;4.50;2.97;;;;;;;;;;5053506;28;20025;-58
2023/01/28 00:43:56;;;;;;;6.87;5.40;;;;;;;;;;5053818;28;20025;-57
2023/01/28 00:46:24;;;;;;;5.50;3.90;;;;;;;;;;5053574;28;20079;-57
2023/01/28 00:48:50;;;;;;;6.43;5.00;;;;;;;;;;5053374;28;20025;-57
2023/01/28 00:51:16;;;;;;;5.47;4.77;;;;;;;;;;5053734;28;20029;-57
2023/01/28 00:53:42;;;;;;;5.70;5.00;;;;;;;;;;5053786;28;20044;-57
2023/01/28 00:56:11;;;;;;;6.20;3.50;;;;;;;;;;5053424;28;20456;-57
2023/01/28 00:58:36;;;;;;;6.07;5.30;;;;;;;;;;5053611;28;20058;-57
2023/01/28 01:01:09;;;;;;;4.73;3.80;;;;;;;;;;5053831;28;20036;-57
2023/01/28 01:03:35;;;;;;;4.13;3.23;;;;;;;;;;5053679;28;20037;-56
2023/01/28 01:06:01;;;;;;;5.13;4.40;;;;;;;;;;5053786;28;20049;-57
2023/01/28 01:08:33;;;;;;;3.37;2.93;;;;;;;;;;5053672;28;20032;-57
2023/01/28 01:11:00;;;;;;;6.03;3.70;;;;;;;;;;5053513;28;20021;-57
2023/01/28 01:13:26;;;;;;;4.30;3.73;;;;;;;;;;5053215;28;20037;-56
2023/01/28 01:16:01;;;;;;;4.73;3.30;;;;;;;;;;5053518;28;20036;-55
2023/01/28 01:18:27;;;;;;;3.23;2.47;;;;;;;;;;5053162;28;20029;-57
2023/01/28 01:20:57;;;;;;;4.83;4.43;;;;;;;;;;5055372;28;20021;-57
2023/01/28 01:23:23;;;;;;;6.25;4.70;;;;;;;;;;5057536;28;20044;-57
2023/01/28 01:25:50;;;;;;;5.67;4.90;;;;;;;;;;5057174;28;20112;-57
2023/01/28 01:28:16;;;;;;;6.13;4.70;;;;;;;;;;5056715;28;20112;-57
2023/01/28 01:30:42;;;;;;;6.37;5.23;;;;;;;;;;5057048;28;20052;-57
2023/01/28 01:33:08;;;;;;;4.33;3.80;;;;;;;;;;5056865;28;20055;-57
2023/01/28 01:35:34;;;;;;;7.80;4.17;;;;;;;;;;5056704;28;20033;-57
2023/01/28 01:38:00;;;;;;;5.90;4.07;;;;;;;;;;5056658;28;20525;-57
2023/01/28 01:40:28;;;;;;;8.03;3.93;;;;;;;;;;5056283;28;20121;-57
2023/01/28 01:42:54;;;;;;;4.80;4.07;;;;;;;;;;5056967;28;20033;-57
2023/01/28 01:45:20;;;;;;;6.73;5.33;;;;;;;;;;5056846;28;20439;-57
2023/01/28 01:47:47;;;;;;;4.33;3.90;;;;;;;;;;5056714;28;20374;-57
2023/01/28 01:50:18;;;;;;;6.07;2.63;;;;;;;;;;5056354;28;20036;-56
2023/01/28 01:52:45;;;;;;;6.63;4.23;;;;;;;;;;5056295;28;20397;-57
2023/01/28 01:55:17;;;;;;;4.00;3.10;;;;;;;;;;5056509;28;20445;-57
2023/01/28 01:57:44;;;;;;;8.33;5.00;;;;;;;;;;5056612;28;20379;-57
2023/01/28 02:00:10;;;;;;;4.47;3.87;;;;;;;;;;5056734;28;20025;-57
2023/01/28 02:02:46;;;;;;;5.47;3.93;;;;;;;;;;5056109;28;20080;-57
2023/01/28 02:05:14;;;;;;;6.60;5.77;;;;;;;;;;5056704;28;20467;-57
2023/01/28 02:07:41;;;;;;;4.87;3.87;;;;;;;;;;5055915;28;20021;-57
2023/01/28 02:10:07;;;;;;;7.17;3.23;;;;;;;;;;5056197;28;20028;-57
2023/01/28 02:12:35;;;;;;;8.80;4.23;;;;;;;;;;5056530;28;20036;-57
2023/01/28 02:15:13;;;;;;;4.93;3.63;;;;;;;;;;5056402;28;20120;-57
2023/01/28 02:17:40;;;;;;;4.27;2.97;;;;;;;;;;5055987;28;20375;-57
2023/01/28 02:20:09;;;;;;;6.33;4.20;;;;;;;;;;5056088;28;20083;-57
2023/01/28 02:22:53;;;;;;;5.83;3.97;;;;;;;;;;5056260;28;20029;-57
2023/01/28 02:25:33;;;;;;;6.27;4.40;;;;;;;;;;5056222;28;20029;-57
2023/01/28 02:28:18;;;;;;;7.68;4.15;;;;;;;;;;5055763;28;20467;-57
2023/01/28 02:31:07;;;;;;;3.40;2.47;;;;;;;;;;5056086;28;20087;-57
2023/01/28 02:33:47;;;;;;;9.23;3.90;;;;;;;;;;5044515;28;20094;-57
2023/01/28 02:36:27;;;;;;;3.83;3.25;;;;;;;;;;5056122;28;20147;-57
2023/01/28 02:38:55;;;;;;;4.20;3.13;;;;;;;;;;5056110;28;20075;-57
2023/01/28 02:41:25;;;;;;;3.37;2.67;;;;;;;;;;5055439;28;20119;-57
2023/01/28 02:43:51;;;;;;;6.20;3.55;;;;;;;;;;5055652;28;20123;-57
2023/01/28 02:49:16;;;;;;;6.33;4.60;;;;;;;;;;5055033;28;20052;-57
2023/01/28 02:51:50;;;;;;;5.77;4.53;;;;;;;;;;5055268;28;20040;-57
2023/01/28 02:54:20;;;;;;;6.40;4.47;;;;;;;;;;5055634;28;20380;-58
2023/01/28 02:56:46;;;;;;;;;;;;;;;;;;5055608;28;20033;-57
2023/01/28 02:59:30;;;;;;;3.63;2.80;;;;;;;;;;5055522;28;20293;-58
2023/01/28 03:02:07;;;;;;;4.90;3.10;;;;;;;;;;5055181;28;20049;-57
2023/01/28 03:04:49;;;;;;;4.17;3.60;;;;;;;;;;5054966;28;20039;-58
2023/01/28 03:07:16;;;;;;;6.60;3.70;;;;;;;;;;5054798;28;20086;-58
2023/01/28 03:09:45;;;;;;;5.27;3.13;;;;;;;;;;5054698;28;20116;-58
2023/01/28 03:37:38;;;;;;;4.17;3.57;;;;;;;;;;5054717;28;20371;-58
2023/01/28 03:40:05;;;;;;;5.17;4.27;;;;;;;;;;5054886;28;20033;-57
2023/01/28 03:42:31;;;;;;;8.10;3.80;;;;;;;;;;5054553;28;20033;-58
2023/01/28 03:45:00;;;;;;;4.80;4.27;;;;;;;;;;5053414;28;20025;-58
2023/01/28 03:47:27;;;;;;;5.30;4.37;;;;;;;;;;5054119;28;20029;-58
2023/01/28 03:49:54;;;;;;;3.87;2.90;;;;;;;;;;5054118;28;20073;-58
2023/01/28 03:52:21;;;;;;;4.93;4.10;;;;;;;;;;5054000;28;20427;-58
2023/01/28 03:54:48;;;;;;;9.77;5.10;;;;;;;;;;5054611;28;20068;-58
2023/01/28 03:57:14;;;;;;;6.53;5.30;;;;;;;;;;5054026;28;20029;-58
2023/01/28 03:59:40;;;;;;;7.27;4.90;;;;;;;;;;5053943;28;20348;-58
2023/01/28 04:02:06;;;;;;;7.30;4.47;;;;;;;;;;5054636;28;20099;-58
2023/01/28 04:04:32;;;;;;;5.60;3.57;;;;;;;;;;5054141;28;20051;-58
2023/01/28 04:06:59;;;;;;;6.30;5.70;;;;;;;;;;5054164;28;20435;-58
2023/01/28 04:09:25;;;;;;;7.70;5.73;;;;;;;;;;5054049;28;20032;-58
2023/01/28 04:11:51;;;;;;;5.40;4.13;;;;;;;;;;5053833;28;20044;-58
2023/01/28 04:14:17;;;;;;;9.43;4.67;;;;;;;;;;5053998;28;20450;-58
2023/01/28 04:16:43;;;;;;;5.00;4.47;;;;;;;;;;5054244;28;20027;-58
2023/01/28 04:19:11;;;;;;;6.10;5.47;;;;;;;;;;5053637;28;20025;-58
2023/01/28 04:21:37;;;;;;;7.63;4.63;;;;;;;;;;5053670;28;20025;-58
2023/01/28 04:24:03;;;;;;;4.63;3.73;;;;;;;;;;5054186;28;20033;-58
2023/01/28 04:26:29;;;;;;;7.93;5.30;;;;;;;;;;5053450;28;20100;-58
2023/01/28 04:28:55;;;;;;;6.23;4.87;;;;;;;;;;5053663;28;20025;-58
2023/01/28 04:31:22;;;;;;;6.53;4.67;;;;;;;;;;5053886;28;20028;-58
2023/01/28 04:33:48;;;;;;;4.13;3.20;;;;;;;;;;5053479;28;20127;-58
2023/01/28 04:36:14;;;;;;;5.87;4.90;;;;;;;;;;5053955;28;20067;-58
2023/01/28 04:38:40;;;;;;;5.07;4.63;;;;;;;;;;5053854;28;20025;-58
2023/01/28 04:41:06;;;;;;;7.73;5.63;;;;;;;;;;5053520;28;20025;-58
2023/01/28 04:43:32;;;;;;;4.77;3.73;;;;;;;;;;5053793;28;20025;-58
2023/01/28 04:45:58;;;;;;;6.03;5.43;;;;;;;;;;5053566;28;20032;-58
2023/01/28 04:48:24;;;;;;;4.20;3.70;;;;;;;;;;5053711;28;20083;-58
2023/01/28 04:50:50;;;;;;;7.60;4.90;;;;;;;;;;5053518;28;20028;-58
2023/01/28 04:53:16;;;;;;;6.47;4.67;;;;;;;;;;5053062;28;20021;-58
2023/01/28 04:55:44;;;;;;;7.63;5.50;;;;;;;;;;5055519;28;20105;-58
2023/01/28 04:58:10;;;;;;;6.40;5.30;;;;;;;;;;5057376;28;20421;-58
2023/01/28 05:00:36;;;;;;;7.87;6.10;;;;;;;;;;5057085;28;20037;-58
2023/01/28 05:03:02;;;;;;;7.17;6.20;;;;;;;;;;5057762;28;20474;-57
2023/01/28 05:05:28;;;;;;;7.10;5.07;;;;;;;;;;5057645;28;20025;-58
2023/01/28 05:07:55;;;;;;;8.07;5.40;;;;;;;;;;5057181;28;20027;-58
2023/01/28 05:10:21;;;;;;;7.17;5.10;;;;;;;;;;5055900;28;20025;-58
2023/01/28 05:12:47;;;;;;;7.63;5.70;;;;;;;;;;5057152;28;20028;-58
2023/01/28 05:15:14;;;;;;;8.23;6.37;;;;;;;;;;5057368;28;20037;-58
2023/01/28 05:17:41;;;;;;;7.37;6.30;;;;;;;;;;5056948;28;20032;-58
2023/01/28 05:20:08;;;;;;;6.37;5.77;;;;;;;;;;5056878;28;20477;-58
2023/01/28 05:22:34;;;;;;;6.03;5.43;;;;;;;;;;5057347;28;20043;-58
2023/01/28 05:25:02;;;;;;;5.27;4.53;;;;;;;;;;5056995;28;20428;-58
2023/01/28 05:27:28;;;;;;;5.90;5.27;;;;;;;;;;5056659;28;20056;-58
2023/01/28 05:29:54;;;;;;;7.60;5.43;;;;;;;;;;5056731;28;20525;-58
2023/01/28 05:32:20;;;;;;;5.33;4.83;;;;;;;;;;5057404;28;20029;-59
2023/01/28 05:34:46;;;;;;;6.33;5.37;;;;;;;;;;5056698;28;20162;-58
2023/01/28 05:37:12;;;;;;;10.83;7.03;;;;;;;;;;5056584;28;20028;-58
2023/01/28 05:39:38;;;;;;;5.70;4.40;;;;;;;;;;5056589;28;20463;-59
2023/01/28 05:42:04;;;;;;;5.17;4.43;;;;;;;;;;5057014;28;20363;-58
2023/01/28 05:44:30;;;;;;;5.67;4.87;;;;;;;;;;5056444;28;20378;-58
2023/01/28 05:46:56;;;;;;;10.30;6.43;;;;;;;;;;5056309;28;20063;-59
2023/01/28 05:49:22;;;;;;;6.03;5.40;;;;;;;;;;5057033;28;20340;-59
2023/01/28 05:51:48;;;;;;;10.70;7.63;;;;;;;;;;5056635;28;20530;-58
2023/01/28 05:54:14;;;;;;;8.07;6.70;;;;;;;;;;5056230;28;20077;-59
2023/01/28 05:56:40;;;;;;;6.80;4.90;;;;;;;;;;5056223;28;20028;-59
2023/01/28 05:59:06;;;;;;;8.53;6.17;;;;;;;;;;5056272;28;20029;-58
2023/01/28 06:01:32;;;;;;;4.97;4.33;;;;;;;;;;5056425;28;20049;-59
2023/01/28 06:03:59;;;;;;;9.73;6.20;;;;;;;;;;5055943;28;20136;-58
2023/01/28 06:06:25;;;;;;;16.67;6.57;;;;;;;;;;5055626;28;20037;-59
2023/01/28 06:08:51;;;;;;;7.83;5.10;;;;;;;;;;5056527;28;20029;-59
2023/01/28 06:11:17;;;;;;;6.50;4.90;;;;;;;;;;5056738;28;20024;-58
2023/01/28 06:13:43;;;;;;;8.10;6.27;;;;;;;;;;5055829;28;20516;-58
2023/01/28 06:16:10;;;;;;;5.57;4.97;;;;;;;;;;5056008;28;20394;-58
2023/01/28 06:18:36;;;;;;;7.47;6.67;;;;;;;;;;5056491;28;20039;-59
2023/01/28 06:21:01;;;;;;;8.17;5.43;;;;;;;;;;5056183;28;20104;-58
2023/01/28 06:23:27;;;;;;;7.23;6.53;;;;;;;;;;5055802;28;20055;-59
2023/01/28 06:25:54;;;;;;;7.30;6.37;;;;;;;;;;5055502;28;20139;-58
2023/01/28 06:28:20;;;;;;;7.10;4.90;;;;;;;;;;5055922;28;20028;-59
2023/01/28 06:30:49;;;;;;;8.97;7.07;;;;;;;;;;5055901;28;20371;-59
2023/01/28 06:33:15;;;;;;;7.13;5.20;;;;;;;;;;5055563;28;20113;-59
2023/01/28 06:35:41;;;;;;;7.17;5.47;;;;;;;;;;5055711;28;20104;-59
2023/01/28 06:38:07;;;;;;;6.93;6.03;;;;;;;;;;5055300;28;20459;-58
2023/01/28 06:40:33;;;;;;;4.80;3.83;;;;;;;;;;5056015;28;20332;-58
2023/01/28 06:42:59;;;;;;;8.10;5.97;;;;;;;;;;5055394;28;20119;-58
2023/01/28 06:45:26;;;;;;;7.63;5.80;;;;;;;;;;5055425;28;20091;-59
2023/01/28 06:47:51;;;;;;;6.03;5.43;;;;;;;;;;5055414;28;20028;-58
2023/01/28 06:50:17;;;;;;;5.37;4.87;;;;;;;;;;5055354;28;20479;-59
2023/01/28 06:52:43;;;;;;;5.63;4.93;;;;;;;;;;5055319;28;20180;-58
2023/01/28 06:55:09;;;;;;;8.30;6.07;;;;;;;;;;5056037;28;20131;-58
2023/01/28 06:57:38;;;;;;;6.33;4.87;;;;;;;;;;5055198;28;20032;-58
2023/01/28 07:00:04;;;;;;;7.10;5.13;;;;;;;;;;5055409;28;20083;-58
2023/01/28 07:02:30;;;;;;;6.73;5.70;;;;;;;;;;5055069;28;20052;-59
2023/01/28 07:04:56;;;;;;;7.17;6.10;;;;;;;;;;5055025;28;20028;-59
2023/01/28 07:07:22;;;;;;;7.83;6.60;;;;;;;;;;5054920;28;20017;-59
2023/01/28 07:09:48;;;;;;;7.57;6.60;;;;;;;;;;5055190;28;20021;-59
2023/01/28 07:12:14;;;;;;;6.70;5.97;;;;;;;;;;5054905;28;20025;-59
2023/01/28 07:14:40;;;;;;;7.43;5.60;;;;;;;;;;5055011;28;20541;-58
2023/01/28 07:17:06;;;;;;;9.73;6.37;;;;;;;;;;5054810;28;20021;-58
2023/01/28 07:19:32;;;;;;;10.50;5.97;;;;;;;;;;5055070;28;20029;-58
2023/01/28 07:21:59;;;;;;;7.93;7.13;;;;;;;;;;5054553;28;20369;-59
2023/01/28 07:24:25;;;;;;;6.87;6.23;;;;;;;;;;5055169;28;20025;-58
2023/01/28 07:26:52;;;;;;;6.90;6.20;;;;;;;;;;5054624;28;20029;-58
2023/01/28 07:29:18;;;;;;;6.73;5.23;;;;;;;;;;5055153;28;20040;-58
2023/01/28 07:31:43;;;;;;;6.97;5.63;;;;;;;;;;5054433;28;20382;-59
2023/01/28 07:34:09;;;;;;;4.90;4.50;;;;;;;;;;5054639;28;20029;-58
2023/01/28 07:36:35;;;;;;;8.23;5.50;;;;;;;;;;5054744;28;20025;-58
2023/01/28 07:39:01;;;;;;;4.87;4.27;;;;;;;;;;5054412;28;20352;-58
2023/01/28 07:41:28;;;;;;;7.67;6.97;;;;;;;;;;5054311;28;20056;-57
2023/01/28 07:43:54;;;;;;;7.27;5.70;;;;;;;;;;5054218;28;20032;-56
2023/01/28 07:46:20;;;;;;;8.17;5.73;;;;;;;;;;5054256;28;20407;-57
2023/01/28 07:48:46;;;;;;;9.47;7.20;;;;;;;;;;5054424;28;20378;-57
2023/01/28 07:51:12;;;;;;;9.53;6.20;;;;;;;;;;5054040;28;20029;-56
2023/01/28 07:53:38;;;;;;;7.60;6.90;;;;;;;;;;5054045;28;20047;-57
2023/01/28 07:56:05;;;;;;;7.37;6.07;;;;;;;;;;5054275;28;20522;-55
2023/01/28 07:58:33;;;;;;;8.17;6.47;;;;;;;;;;5054303;28;20112;-57
2023/01/28 08:00:59;;;;;;;9.00;6.97;;;;;;;;;;5053799;28;20025;-56
2023/01/28 08:03:25;;;;;;;5.87;4.80;;;;;;;;;;5053536;28;20470;-58
2023/01/28 08:05:52;;;;;;;8.50;7.47;;;;;;;;;;5054317;28;20036;-57
2023/01/28 08:08:19;;;;;;;10.30;8.33;;;;;;;;;;5053231;28;20381;-57
2023/01/28 08:10:45;;;;;;;10.37;6.77;;;;;;;;;;5053746;28;20033;-57
2023/01/28 08:13:12;;;;;;;13.43;7.27;;;;;;;;;;5054089;28;20070;-57
2023/01/28 08:15:37;;;;;;;8.00;6.90;;;;;;;;;;5053731;28;20033;-55
2023/01/28 08:18:04;;;;;;;7.93;7.13;;;;;;;;;;5053714;28;20107;-56
2023/01/28 08:20:30;;;;;;;8.57;7.00;;;;;;;;;;5053709;28;20025;-56
2023/01/28 08:23:06;;;;;;;9.13;6.43;;;;;;;;;;5054008;28;20029;-55
2023/01/28 08:25:32;;;;;;;10.47;7.33;;;;;;;;;;5053909;28;20025;-57
2023/01/28 08:27:58;;;;;;;8.07;7.30;;;;;;;;;;5053991;28;20087;-56
2023/01/28 08:30:24;;;;;;;10.67;8.13;;;;;;;;;;5053903;28;20447;-55
2023/01/28 08:32:50;;;;;;;8.63;5.07;;;;;;;;;;5053636;28;20108;-56
2023/01/28 08:35:16;;;;;;;11.20;6.47;;;;;;;;;;5053870;28;20033;-56
2023/01/28 08:37:42;;;;;;;7.73;6.30;;;;;;;;;;5053523;28;20479;-58
2023/01/28 08:40:09;;;;;;;7.87;6.07;;;;;;;;;;5053590;28;20028;-57
2023/01/28 08:42:34;;;;;;;8.00;6.83;;;;;;;;;;5053452;28;20032;-57
2023/01/28 08:45:00;;;;;;;8.63;7.50;;;;;;;;;;5053926;28;20025;-57
2023/01/28 08:47:26;;;;;;;6.97;5.63;;;;;;;;;;5053506;28;20025;-58
2023/01/28 08:49:52;;;;;;;8.77;6.97;;;;;;;;;;5054091;28;20025;-56
2023/01/28 08:52:18;;;;;;;9.17;7.60;;;;;;;;;;5053381;28;20021;-56
2023/01/28 08:54:44;;;;;;;9.90;8.67;;;;;;;;;;5053297;28;20040;-57
2023/01/28 08:57:10;;;;;;;9.47;7.47;;;;;;;;;;5053557;28;20029;-56
2023/01/28 08:59:43;;;;;;;9.47;6.97;;;;;;;;;;5053323;28;20053;-57
2023/01/28 09:02:10;;;;;;;8.43;7.57;;;;;;;;;;5053658;28;20410;-56
2023/01/28 09:04:36;;;;;;;7.87;6.13;;;;;;;;;;5053418;28;20033;-57
2023/01/28 09:07:02;;;;;;;7.27;5.33;;;;;;;;;;5052923;28;20036;-54
2023/01/28 09:09:30;;;;;;;8.80;7.17;;;;;;;;;;5052897;28;20083;-57
2023/01/28 09:11:56;;;;;;;7.83;6.93;;;;;;;;;;5052729;28;20459;-56
2023/01/28 09:14:22;;;;;;;8.97;8.07;;;;;;;;;;5053257;28;20090;-57
2023/01/28 09:16:47;;;;;;;9.93;8.13;;;;;;;;;;5053328;28;20112;-53
2023/01/28 09:19:13;;;;;;;7.17;6.23;;;;;;;;;;5053542;28;20033;-56
2023/01/28 09:21:39;;;;;;;10.33;8.83;;;;;;;;;;5053467;28;20028;-57
2023/01/28 09:24:05;;;;;;;10.60;7.87;;;;;;;;;;5052970;28;20036;-57
2023/01/28 09:26:33;;;;;;;11.60;7.83;;;;;;;;;;5053305;28;20061;-58
2023/01/28 09:28:59;;;;;;;10.67;8.77;;;;;;;;;;5053446;28;20029;-56
2023/01/28 09:31:25;;;;;;;11.40;8.43;;;;;;;;;;5053241;28;20037;-56
2023/01/28 09:33:55;;;;;;;8.50;5.53;;;;;;;;;;5053578;28;20440;-57
2023/01/28 09:36:21;;;;;;;8.82;7.50;;;;;;;;;;5053734;28;20049;-57
2023/01/28 09:38:47;;;;;;;11.13;9.47;;;;;;;;;;5052933;28;20021;-57
2023/01/28 09:41:22;;;;;;;10.57;7.20;;;;;;;;;;5052884;28;20044;-56
2023/01/28 09:43:58;;;;;;;9.23;7.97;;;;;;;;;;5056320;28;20359;-57
2023/01/28 09:46:28;;;;;;;9.13;6.27;;;;;;;;;;5056467;28;20061;-56
2023/01/28 09:48:54;;;;;;;9.43;8.60;;;;;;;;;;5056643;28;20024;-56
2023/01/28 09:51:31;;;;;;;10.30;7.93;;;;;;;;;;5056591;28;20017;-55
2023/01/28 09:54:00;;;;;;;10.00;8.77;;;;;;;;;;5056211;28;20036;-57
2023/01/28 09:56:29;;;;;;;10.83;7.40;;;;;;;;;;5056274;28;20071;-58
2023/01/28 09:58:57;;;;;;;9.47;7.43;;;;;;;;;;5056307;28;20036;-56
2023/01/28 10:01:38;;;;;;;10.30;6.70;;;;;;;;;;5055673;28;20133;-56
2023/01/28 10:04:15;;;;;;;8.37;7.50;;;;;;;;;;5056000;28;20021;-56
2023/01/28 10:06:43;;;;;;;8.17;7.33;;;;;;;;;;5056501;28;20017;-57
2023/01/28 10:09:09;;;;;;;7.03;5.60;;;;;;;;;;5055957;28;20029;-56
2023/01/28 10:11:47;;;;;;;15.10;8.60;;;;;;;;;;5056278;28;20362;-56
2023/01/28 10:14:25;;;;;;;9.73;7.73;;;;;;;;;;5056219;28;20418;-55
2023/01/28 10:17:04;;;;;;;17.97;8.30;;;;;;;;;;5056016;28;20470;-56
2023/01/28 10:19:33;;;;;;;13.37;8.77;;;;;;;;;;5056168;28;20052;-57
2023/01/28 10:22:07;;;;;;;9.43;8.47;;;;;;;;;;5056141;28;20096;-55
2023/01/28 10:24:38;;;;;;;12.77;7.80;;;;;;;;;;5056375;28;20480;-57
2023/01/28 10:27:18;;;;;;;8.77;7.67;;;;;;;;;;5056005;28;20029;-56
2023/01/28 10:29:48;;;;;;;10.35;7.35;;;;;;;;;;5055387;28;20029;-57
2023/01/28 10:32:17;;;;;;;8.47;7.27;;;;;;;;;;5055686;28;20017;-55
2023/01/28 10:34:43;;;;;;;9.60;7.50;;;;;;;;;;5055251;28;20287;-57
2023/01/28 10:37:12;;;;;;;12.13;8.40;;;;;;;;;;5056020;28;20021;-57
2023/01/28 10:39:38;;;;;;;12.77;8.50;;;;;;;;;;5055723;28;20447;-57
2023/01/28 10:42:15;;;;;;;9.20;7.30;;;;;;;;;;5055533;28;20031;-57
2023/01/28 10:44:42;;;;;;;7.20;6.33;;;;;;;;;;5055448;28;20029;-57
2023/01/28 10:47:15;;;;;;;9.80;7.47;;;;;;;;;;5055226;28;20111;-57
2023/01/28 10:49:44;;;;;;;11.17;8.23;;;;;;;;;;5055561;28;20104;-58
2023/01/28 10:52:10;;;;;;;9.33;7.80;;;;;;;;;;5054686;28;20035;-58
2023/01/28 10:54:36;;;;;;;13.07;9.23;;;;;;;;;;5054878;28;20037;-58
2023/01/28 10:57:04;;;;;;;8.80;7.27;;;;;;;;;;5055496;28;20036;-57
2023/01/28 10:59:31;;;;;;;10.03;6.23;;;;;;;;;;5055625;28;20021;-54
2023/01/28 11:02:02;;;;;;;14.93;8.43;;;;;;;;;;5054982;28;20533;-57
2023/01/28 11:04:30;;;;;;;10.80;8.60;;;;;;;;;;5055693;28;20510;-57
2023/01/28 11:07:03;;;;;;;12.13;7.50;;;;;;;;;;5055223;28;20029;-57
2023/01/28 11:09:31;;;;;;;10.50;7.77;;;;;;;;;;5054909;28;20104;-54
2023/01/28 11:11:58;;;;;;;14.70;9.83;;;;;;;;;;5055511;28;20107;-57
2023/01/28 11:14:25;;;;;;;8.50;7.50;;;;;;;;;;5054801;28;20028;-57
2023/01/28 11:16:52;;;;;;;13.87;9.90;;;;;;;;;;5054720;28;20017;-58
2023/01/28 11:19:20;;;;;;;13.73;10.27;;;;;;;;;;5054510;28;20025;-55
2023/01/28 11:21:50;;;;;;;8.63;7.27;;;;;;;;;;5054672;28;20532;-55
2023/01/28 11:24:20;;;;;;;11.32;8.55;;;;;;;;;;5054503;28;20029;-57
2023/01/28 11:26:48;;;;;;;9.15;7.75;;;;;;;;;;5054842;28;20099;-55
2023/01/28 11:29:20;;;;;;;10.40;8.87;;;;;;;;;;5055069;28;20439;-56
2023/01/28 11:31:46;;;;;;;10.60;9.50;;;;;;;;;;5054364;28;20025;-55
2023/01/28 11:34:14;;;;;;;13.50;7.87;;;;;;;;;;5054457;28;20056;-56
2023/01/28 11:36:49;;;;;;;9.43;7.03;;;;;;;;;;5054460;28;20025;-56
2023/01/28 11:39:20;;;;;;;11.63;8.50;;;;;;;;;;5055214;28;20021;-55
2023/01/28 11:41:47;;;;;;;9.63;8.60;;;;;;;;;;5054307;28;20029;-56
2023/01/28 11:44:18;;;;;;;13.03;9.80;;;;;;;;;;5054851;28;20108;-55
2023/01/28 11:46:53;;;;;;;12.07;8.53;;;;;;;;;;5054193;28;20029;-55
2023/01/28 11:49:37;;;;;;;23.00;8.90;;;;;;;;;;5053908;28;20025;-55
2023/01/28 11:52:09;;;;;;;9.23;7.10;;;;;;;;;;5054753;28;20029;-55
2023/01/28 11:54:44;;;;;;;9.37;6.60;;;;;;;;;;5054034;28;20036;-57
2023/01/28 11:57:46;;;;;;;16.47;7.83;;;;;;;;;;5054522;28;20021;-57
2023/01/28 12:00:34;;;;;;;10.67;7.30;;;;;;;;;;5031716;28;20038;-57
2023/01/28 12:03:19;;;;;;;10.97;7.00;;;;;;;;;;5052941;28;20051;-57
2023/01/28 12:05:56;;;;;;;10.83;6.83;;;;;;;;;;5053965;28;20039;-56
2023/01/28 12:08:26;;;;;;;10.20;7.83;;;;;;;;;;5053869;28;20028;-56
2023/01/28 12:10:58;;;;;;;8.93;8.03;;;;;;;;;;5053839;28;20025;-55
2023/01/28 12:13:29;;;;;;;10.60;8.27;;;;;;;;;;5054527;28;20342;-55
2023/01/28 12:16:04;;;;;;;11.47;8.30;;;;;;;;;;5054330;28;20033;-56
2023/01/28 12:18:59;;;;;;;10.73;8.80;;;;;;;;;;5053986;28;20074;-57
2023/01/28 12:21:46;;;;;;;9.43;6.90;;;;;;;;;;5048419;28;20379;-56
2023/01/28 12:24:12;;;;;;;9.10;7.27;;;;;;;;;;5054236;28;20032;-55
2023/01/28 12:26:47;;;;;;;11.27;6.80;;;;;;;;;;5054483;28;20340;-57
2023/01/28 12:29:32;;;;;;;8.77;7.83;;;;;;;;;;5053334;28;20471;-55
2023/01/28 12:32:16;;;;;;;14.03;8.93;;;;;;;;;;5054130;28;20484;-57
2023/01/28 12:34:42;;;;;;;12.13;7.13;;;;;;;;;;5053875;28;20065;-56
2023/01/28 12:37:28;;;;;;;15.37;7.77;;;;;;;;;;5053606;28;20032;-54
2023/01/28 12:40:05;;;;;;;15.60;11.10;;;;;;;;;;5053864;28;20032;-56
2023/01/28 12:42:52;;;;;;;9.20;7.00;;;;;;;;;;5053838;28;20112;-55
2023/01/28 12:45:22;;;;;;;10.50;7.43;;;;;;;;;;5053577;28;20520;-55
2023/01/28 12:48:09;;;;;;;10.55;6.82;;;;;;;;;;5053543;28;20411;-56
2023/01/28 12:50:41;;;;;;;11.83;8.40;;;;;;;;;;5050264;28;20435;-55
2023/01/28 12:53:25;;;;;;;11.40;7.87;;;;;;;;;;5053995;28;20517;-55
2023/01/28 12:55:56;;;;;;;10.50;9.43;;;;;;;;;;5053575;28;20366;-55
2023/01/28 12:58:44;;;;;;;10.77;9.73;;;;;;;;;;5053477;28;20458;-55
2023/01/28 13:01:13;;;;;;;11.63;7.73;;;;;;;;;;5053350;28;20060;-57
2023/01/28 13:03:41;;;;;;;10.40;9.33;;;;;;;;;;5053967;28;20032;-56
2023/01/28 13:06:22;;;;;;;13.63;8.30;;;;;;;;;;5053789;28;20056;-55
2023/01/28 13:08:48;;;;;;;;;;;;;;;;;;5054067;28;20406;-55
2023/01/28 13:11:15;;;;;;;6.07;4.70;;;;;;;;;;5052962;28;19967;-56
2023/01/28 13:13:42;;;;;;;10.03;8.17;;;;;;;;;;5053132;28;20370;-57
2023/01/28 13:16:10;;;;;;;8.97;7.03;;;;;;;;;;5054783;28;20021;-57
2023/01/28 13:18:42;;;;;;;8.60;6.53;;;;;;;;;;5056602;28;20021;-57
2023/01/28 13:21:23;;;;;;;9.47;8.17;;;;;;;;;;5056438;28;20463;-54
2023/01/28 13:23:50;;;;;;;10.87;7.67;;;;;;;;;;5056374;28;20395;-57
2023/01/28 13:26:19;;;;;;;8.53;5.23;;;;;;;;;;5057346;28;20029;-57
2023/01/28 13:28:46;;;;;;;7.33;5.67;;;;;;;;;;5056771;28;20035;-57
2023/01/28 13:31:16;;;;;;;8.27;7.33;;;;;;;;;;5056678;28;20028;-57
2023/01/28 13:33:42;;;;;;;10.95;7.30;;;;;;;;;;5055949;28;20171;-56
2023/01/28 13:36:28;;;;;;;8.23;6.67;;;;;;;;;;5057349;28;20021;-57
2023/01/28 13:39:00;;;;;;;7.07;5.80;;;;;;;;;;5057460;28;20040;-56
2023/01/28 13:41:39;;;;;;;8.27;6.73;;;;;;;;;;5056564;28;20469;-56
2023/01/28 13:44:17;;;;;;;5.60;5.00;;;;;;;;;;5056453;28;20029;-56
2023/01/28 13:46:43;;;;;;;5.40;4.83;;;;;;;;;;5056718;28;20033;-56
2023/01/28 13:49:16;;;;;;;6.57;4.53;;;;;;;;;;5056796;28;20028;-56
2023/01/28 13:51:50;;;;;;;8.20;5.23;;;;;;;;;;5056296;28;20375;-56
2023/01/28 13:54:18;;;;;;;7.03;4.70;;;;;;;;;;5056106;28;20040;-53
2023/01/28 13:56:56;;;;;;;8.07;4.70;;;;;;;;;;5056205;28;20456;-57
2023/01/28 13:59:42;;;;;;;5.13;4.63;;;;;;;;;;5056771;28;20191;-57
2023/01/28 14:02:24;;;;;;;5.83;4.93;;;;;;;;;;5045234;28;20049;-54
2023/01/28 14:04:50;;;;;;;6.17;3.83;;;;;;;;;;5056046;28;20497;-56
2023/01/28 14:07:23;;;;;;;6.93;6.00;;;;;;;;;;5056213;28;20025;-56
2023/01/28 14:09:59;;;;;;;5.60;5.03;;;;;;;;;;5056145;28;20036;-57
2023/01/28 14:12:28;;;;;;;5.30;4.80;;;;;;;;;;5056342;28;20036;-55
2023/01/28 14:15:06;;;;;;;10.43;7.43;;;;;;;;;;5056069;28;20033;-57
2023/01/28 14:17:49;;;;;;;8.13;5.47;;;;;;;;;;5055855;28;20036;-56
2023/01/28 14:20:20;;;;;;;5.03;4.37;;;;;;;;;;5056485;28;20025;-56
2023/01/28 14:22:47;;;;;;;9.50;6.63;;;;;;;;;;5055936;28;20025;-56
2023/01/28 14:28:21;;;;;;;7.17;5.70;;;;;;;;;;5047571;28;20039;-54
2023/01/28 14:30:53;;;;;;;3.97;3.23;;;;;;;;;;5054602;28;20036;-52
2023/01/28 14:33:20;;;;;;;11.37;4.77;;;;;;;;;;5055688;28;20036;-56
2023/01/28 14:35:47;;;;;;;6.70;4.73;;;;;;;;;;5055958;28;20036;-56
2023/01/28 14:38:16;;;;;;;7.90;6.37;;;;;;;;;;5055564;28;20363;-56
2023/01/28 14:40:42;;;;;;;7.33;5.30;;;;;;;;;;5056223;28;20036;-55
2023/01/28 14:43:12;;;;;;;5.77;5.00;;;;;;;;;;5055447;28;20032;-55
2023/01/28 14:45:53;;;;;;;7.82;4.70;;;;;;;;;;5053961;28;20049;-56
2023/01/28 14:48:38;;;;;;;8.05;5.28;;;;;;;;;;5055461;28;20033;-56
2023/01/28 14:51:22;;;;;;;7.37;5.57;;;;;;;;;;5054570;28;20036;-58
2023/01/28 14:54:03;;;;;;;9.70;5.80;;;;;;;;;;5055421;28;20103;-58
2023/01/28 14:56:48;;;;;;;5.13;3.73;;;;;;;;;;5055610;28;20083;-55
2023/01/28 14:59:23;;;;;;;6.07;4.67;;;;;;;;;;5055917;28;20025;-58
2023/01/28 15:01:54;;;;;;;6.27;4.07;;;;;;;;;;5054875;28;20052;-57
2023/01/28 15:04:28;;;;;;;5.27;4.73;;;;;;;;;;5055608;28;20032;-58
2023/01/28 15:06:54;;;;;;;5.83;5.27;;;;;;;;;;5054975;28;20025;-58
2023/01/28 15:09:21;;;;;;;4.13;3.77;;;;;;;;;;5054849;28;20078;-58
2023/01/28 15:11:48;;;;;;;4.73;3.93;;;;;;;;;;5055182;28;20036;-56
2023/01/28 15:14:28;;;;;;;5.63;5.13;;;;;;;;;;5055291;28;20471;-57
2023/01/28 15:16:54;;;;;;;7.33;5.63;;;;;;;;;;5054446;28;20041;-57
2023/01/28 15:19:25;;;;;;;6.93;4.10;;;;;;;;;;5055554;28;20514;-57
2023/01/28 15:21:54;;;;;;;5.93;4.95;;;;;;;;;;5055063;28;20048;-54
2023/01/28 15:24:20;;;;;;;8.60;5.20;;;;;;;;;;5055303;28;20029;-57